Time;durP1;ratioP1;P1;durP2;ratioP2;P2;SDS_P1;SDS_P2;PMS_P1;PMS_P2;Temp;Humidity;BMP_temperature;BMP_pressure;BME280_temperature;BME280_humidity;BME280_pressure;Samples;Min_cycle;Max_cycle;Signal;HPM_P1;HPM_P2
2023/03/02 00:02:11;;;;;;;29.23;17.33;;;3.50;99.90;;;;;;5053874;28;20114;-80
2023/03/02 00:04:44;;;;;;;33.25;17.92;;;3.20;99.90;;;;;;5054759;28;20116;-78
2023/03/02 00:07:13;;;;;;;28.08;18.17;;;3.20;99.90;;;;;;5054148;28;20095;-78
2023/03/02 00:09:39;;;;;;;28.88;17.88;;;3.30;99.90;;;;;;5054868;28;20500;-78
2023/03/02 00:12:06;;;;;;;30.98;17.77;;;3.20;99.90;;;;;;5053593;28;20043;-78
2023/03/02 00:14:32;;;;;;;28.85;17.45;;;3.20;99.90;;;;;;5053391;28;20071;-78
2023/03/02 00:16:57;;;;;;;29.35;17.85;;;3.40;99.90;;;;;;5053655;28;20037;-78
2023/03/02 00:19:23;;;;;;;29.58;17.75;;;3.40;99.90;;;;;;5054837;28;20037;-78
2023/03/02 00:21:48;;;;;;;28.20;17.15;;;3.00;99.90;;;;;;5053483;28;20084;-78
2023/03/02 00:24:14;;;;;;;28.52;17.48;;;3.10;99.90;;;;;;5054445;28;20045;-80
2023/03/02 00:26:40;;;;;;;28.63;16.75;;;3.00;99.90;;;;;;5053882;28;20037;-78
2023/03/02 00:29:06;;;;;;;29.92;17.75;;;2.90;99.90;;;;;;5053401;28;20029;-77
2023/03/02 00:31:32;;;;;;;27.90;16.48;;;3.30;99.90;;;;;;5054728;28;20120;-77
2023/03/02 00:33:58;;;;;;;32.40;17.77;;;2.90;99.90;;;;;;5053028;28;20514;-77
2023/03/02 00:36:23;;;;;;;30.23;18.20;;;3.30;99.90;;;;;;5054831;28;20116;-78
2023/03/02 00:38:53;;;;;;;27.08;16.05;;;2.80;99.90;;;;;;5053292;28;20060;-78
2023/03/02 00:41:22;;;;;;;30.08;16.48;;;3.00;99.90;;;;;;5053068;28;20067;-77
2023/03/02 00:43:49;;;;;;;27.15;16.60;;;3.20;99.90;;;;;;5053873;28;20072;-75
2023/03/02 00:46:21;;;;;;;28.48;16.77;;;3.20;99.90;;;;;;5054341;28;20124;-75
2023/03/02 00:48:47;;;;;;;28.42;14.77;;;2.80;99.90;;;;;;5053260;28;20048;-75
2023/03/02 00:51:13;;;;;;;29.83;16.45;;;3.10;99.90;;;;;;5054290;28;20431;-77
2023/03/02 00:53:39;;;;;;;27.67;16.08;;;2.80;99.90;;;;;;5053007;28;20042;-77
2023/03/02 00:56:05;;;;;;;31.48;16.70;;;3.20;99.90;;;;;;5053159;28;20132;-75
2023/03/02 00:58:31;;;;;;;28.67;16.85;;;3.10;99.90;;;;;;5036204;28;20076;-76
2023/03/02 01:00:57;;;;;;;26.77;16.65;;;2.60;99.90;;;;;;5052803;28;20086;-75
2023/03/02 01:03:23;;;;;;;30.80;18.40;;;3.20;99.90;;;;;;5053619;28;20044;-77
2023/03/02 01:05:54;;;;;;;29.50;17.45;;;2.70;99.90;;;;;;5052725;28;20493;-76
2023/03/02 01:08:20;;;;;;;31.35;16.23;;;2.90;99.90;;;;;;5052971;28;20041;-75
2023/03/02 01:10:45;;;;;;;27.25;16.38;;;2.80;99.90;;;;;;5052444;28;20045;-78
2023/03/02 01:13:11;;;;;;;29.92;17.33;;;2.80;99.90;;;;;;5052497;28;20056;-78
2023/03/02 01:15:37;;;;;;;29.75;16.63;;;2.70;99.90;;;;;;5052839;28;20607;-77
2023/03/02 01:18:02;;;;;;;27.30;16.50;;;2.90;99.90;;;;;;5052515;28;20514;-78
2023/03/02 01:20:28;;;;;;;28.52;16.52;;;3.10;99.90;;;;;;5052471;28;20047;-78
2023/03/02 01:22:54;;;;;;;28.85;16.50;;;2.70;99.90;;;;;;5052086;28;20083;-78
2023/03/02 01:25:20;;;;;;;28.83;16.70;;;2.80;99.90;;;;;;5035042;28;20037;-75
2023/03/02 01:27:45;;;;;;;28.80;15.95;;;3.00;99.90;;;;;;5052669;28;20102;-75
2023/03/02 01:30:12;;;;;;;28.52;16.98;;;2.70;99.90;;;;;;5052204;28;20508;-75
2023/03/02 01:32:37;;;;;;;29.17;17.73;;;2.80;99.90;;;;;;5051965;28;20077;-76
2023/03/02 01:35:04;;;;;;;28.17;16.73;;;2.60;99.90;;;;;;5052103;28;20044;-75
2023/03/02 01:37:29;;;;;;;29.70;16.77;;;3.10;99.90;;;;;;5051969;28;20032;-77
2023/03/02 01:39:55;;;;;;;30.88;16.75;;;3.10;99.90;;;;;;5053249;28;20102;-77
2023/03/02 01:42:20;;;;;;;29.83;16.85;;;2.50;99.90;;;;;;5052019;28;20083;-78
2023/03/02 01:44:53;;;;;;;27.85;15.68;;;2.80;99.90;;;;;;5051483;28;20068;-78
2023/03/02 01:47:29;;;;;;;30.10;18.13;;;3.00;99.90;;;;;;5035545;28;20052;-77
2023/03/02 01:49:58;;;;;;;29.67;18.02;;;3.00;99.90;;;;;;5051921;28;20087;-78
2023/03/02 01:52:26;;;;;;;28.35;17.13;;;2.40;99.90;;;;;;5053059;28;20053;-78
2023/03/02 01:54:55;;;;;;;31.35;18.23;;;2.70;99.90;;;;;;5052712;28;20048;-77
2023/03/02 01:57:26;;;;;;;29.05;16.83;;;2.60;99.90;;;;;;5051928;28;20064;-78
2023/03/02 02:00:07;;;;;;;30.63;18.25;;;2.60;99.90;;;;;;5051784;28;20040;-75
2023/03/02 02:02:34;;;;;;;30.95;18.15;;;2.70;99.90;;;;;;5034899;28;20048;-75
2023/03/02 02:05:00;;;;;;;29.85;18.20;;;2.30;99.90;;;;;;5034652;28;20079;-75
2023/03/02 02:07:26;;;;;;;33.78;18.92;;;2.40;99.90;;;;;;5051559;28;20067;-75
2023/03/02 02:09:53;;;;;;;29.02;17.73;;;2.80;99.90;;;;;;5051451;28;20091;-76
2023/03/02 02:12:21;;;;;;;34.40;20.42;;;2.20;99.90;;;;;;5051335;28;20045;-75
2023/03/02 02:14:47;;;;;;;35.97;19.83;;;2.70;99.90;;;;;;5052340;28;20095;-78
2023/03/02 02:17:15;;;;;;;38.22;21.05;;;2.30;99.90;;;;;;5051385;28;20130;-77
2023/03/02 02:20:15;;;;;;;37.75;19.77;;;2.20;99.90;;;;;;5051215;28;20045;-78
2023/03/02 02:23:09;;;;;;;37.78;21.25;;;2.10;99.90;;;;;;5051474;28;20057;-75
2023/03/02 02:25:54;;;;;;;39.00;23.08;;;2.40;99.90;;;;;;5052464;28;20500;-75
2023/03/02 02:28:47;;;;;;;38.97;22.48;;;2.60;99.90;;;;;;5051404;28;20496;-75
2023/03/02 02:31:12;;;;;;;42.72;21.90;;;2.30;99.90;;;;;;5054041;28;20451;-76
2023/03/02 02:33:40;;;;;;;45.63;23.95;;;2.10;99.90;;;;;;5069493;28;20063;-75
2023/03/02 02:36:13;;;;;;;46.95;22.73;;;2.60;99.90;;;;;;5070652;28;20041;-77
2023/03/02 02:38:40;;;;;;;44.30;23.23;;;2.00;99.90;;;;;;5070252;28;20500;-78
2023/03/02 02:41:11;;;;;;;45.33;23.30;;;2.10;99.90;;;;;;5070232;28;20046;-78
2023/03/02 02:43:37;;;;;;;46.78;25.38;;;2.40;99.90;;;;;;5070272;28;20174;-77
2023/03/02 02:46:02;;;;;;;47.75;25.90;;;2.30;99.90;;;;;;5069387;28;20112;-79
2023/03/02 02:48:31;;;;;;;49.35;26.58;;;2.30;99.90;;;;;;5050905;28;20496;-78
2023/03/02 02:51:01;;;;;;;51.88;25.95;;;2.20;99.90;;;;;;5050590;28;20566;-77
2023/03/02 02:53:49;;;;;;;46.75;25.30;;;2.10;99.90;;;;;;5049674;28;20399;-78
2023/03/02 02:56:15;;;;;;;48.40;25.17;;;2.30;99.90;;;;;;5045156;28;20045;-78
2023/03/02 02:58:48;;;;;;;54.85;26.80;;;2.30;99.90;;;;;;5051791;28;20484;-78
2023/03/02 03:01:15;;;;;;;52.73;26.33;;;2.30;99.90;;;;;;5050766;28;20666;-78
2023/03/02 03:04:04;;;;;;;47.03;24.42;;;2.30;99.90;;;;;;5033521;28;20041;-78
2023/03/02 03:06:41;;;;;;;51.45;26.27;;;2.10;99.90;;;;;;5049935;28;20049;-77
2023/03/02 03:09:08;;;;;;;52.10;26.08;;;2.10;99.90;;;;;;5050447;28;20076;-77
2023/03/02 03:11:36;;;;;;;48.97;26.90;;;2.10;99.90;;;;;;5051820;28;20179;-77
2023/03/02 03:14:11;;;;;;;56.35;26.63;;;2.30;99.90;;;;;;5050242;28;20072;-77
2023/03/02 03:16:40;;;;;;;58.72;27.83;;;2.30;99.90;;;;;;5048991;28;20044;-78
2023/03/02 03:19:16;;;;;;;60.50;30.02;;;2.30;99.90;;;;;;5049827;28;20032;-78
2023/03/02 03:21:42;;;;;;;53.95;29.70;;;2.10;99.90;;;;;;5033581;28;20041;-78
2023/03/02 03:24:07;;;;;;;62.10;28.33;;;2.30;99.90;;;;;;5051040;28;20124;-79
2023/03/02 03:26:33;;;;;;;54.85;26.80;;;2.20;99.90;;;;;;5050096;28;20638;-78
2023/03/02 03:28:59;;;;;;;55.22;28.30;;;2.10;99.90;;;;;;5050205;28;20467;-78
2023/03/02 03:31:26;;;;;;;64.03;28.83;;;2.30;99.90;;;;;;5050055;28;20041;-78
2023/03/02 03:33:53;;;;;;;62.15;28.92;;;2.10;99.90;;;;;;5049670;28;20129;-78
2023/03/02 03:36:19;;;;;;;67.38;30.33;;;2.00;99.90;;;;;;5049906;28;20037;-78
2023/03/02 03:38:45;;;;;;;67.53;31.73;;;2.30;99.90;;;;;;5033620;28;20454;-78
2023/03/02 03:41:10;;;;;;;72.35;30.85;;;2.30;99.90;;;;;;5051455;28;20099;-77
2023/03/02 03:43:36;;;;;;;76.18;33.58;;;2.20;99.90;;;;;;5076652;22;20045;-74
2023/03/02 03:46:01;;;;;;;73.35;31.85;;;2.30;99.90;;;;;;5069195;28;20132;-71
2023/03/02 03:48:27;;;;;;;89.32;34.08;;;2.20;99.90;;;;;;5068408;28;20037;-72
2023/03/02 03:50:52;;;;;;;82.45;31.00;;;2.00;99.90;;;;;;5069182;28;20480;-72
2023/03/02 03:53:18;;;;;;;95.72;32.08;;;2.00;99.90;;;;;;5068108;28;20049;-72
2023/03/02 03:55:43;;;;;;;116.88;33.63;;;1.90;99.90;;;;;;5067888;28;20033;-71
2023/03/02 03:58:09;;;;;;;143.57;37.10;;;2.00;99.90;;;;;;5067843;28;20048;-72
2023/03/02 04:00:35;;;;;;;131.32;36.60;;;1.90;99.90;;;;;;5068185;28;20036;-72
2023/03/02 04:03:00;;;;;;;105.97;35.08;;;2.00;99.90;;;;;;5069942;28;20128;-72
2023/03/02 04:05:26;;;;;;;94.40;34.83;;;1.90;99.90;;;;;;5069907;28;20120;-72
2023/03/02 04:07:52;;;;;;;120.82;36.45;;;1.80;99.90;;;;;;5069977;28;20036;-72
2023/03/02 04:10:18;;;;;;;135.68;39.28;;;2.00;99.90;;;;;;5069866;28;20514;-71
2023/03/02 04:12:44;;;;;;;150.35;40.47;;;1.80;99.90;;;;;;5069730;28;20126;-71
2023/03/02 04:15:14;;;;;;;218.18;43.45;;;1.70;99.90;;;;;;5069592;28;20047;-72
2023/03/02 04:17:41;;;;;;;127.38;38.20;;;1.70;99.90;;;;;;5069870;28;20120;-72
2023/03/02 04:20:08;;;;;;;224.38;50.33;;;1.90;99.90;;;;;;5070060;28;20046;-72
2023/03/02 04:22:34;;;;;;;144.38;39.88;;;1.70;99.90;;;;;;5053049;28;20518;-72
2023/03/02 04:24:59;;;;;;;148.32;41.97;;;1.70;99.90;;;;;;5069426;28;20048;-72
2023/03/02 04:27:25;;;;;;;96.72;32.80;;;1.70;99.90;;;;;;5070833;28;20047;-72
2023/03/02 04:29:51;;;;;;;84.95;33.05;;;1.70;99.90;;;;;;5056936;28;20128;-72
2023/03/02 04:32:17;;;;;;;121.90;36.65;;;1.80;99.90;;;;;;5073279;28;20504;-72
2023/03/02 04:34:43;;;;;;;117.97;35.58;;;1.80;99.90;;;;;;5072952;28;20561;-72
2023/03/02 04:37:08;;;;;;;130.88;36.67;;;1.80;99.90;;;;;;5073086;28;20119;-72
2023/03/02 04:39:34;;;;;;;143.55;38.08;;;1.80;99.90;;;;;;5073306;28;20132;-71
2023/03/02 04:42:00;;;;;;;104.50;34.42;;;1.70;99.90;;;;;;5073065;28;20044;-72
2023/03/02 04:44:25;;;;;;;127.03;37.78;;;1.60;99.90;;;;;;5072799;28;20087;-72
2023/03/02 04:46:51;;;;;;;78.57;31.95;;;1.60;99.90;;;;;;5073133;28;20492;-72
2023/03/02 04:49:18;;;;;;;100.43;31.17;;;1.60;99.90;;;;;;5072737;28;20044;-72
2023/03/02 04:51:46;;;;;;;89.60;33.42;;;1.60;99.90;;;;;;5072932;28;20036;-72
2023/03/02 04:54:21;;;;;;;71.78;29.67;;;1.70;99.90;;;;;;5056099;28;20090;-72
2023/03/02 04:56:47;;;;;;;88.00;32.47;;;1.60;99.90;;;;;;5072807;28;20496;-72
2023/03/02 04:59:18;;;;;;;100.25;32.70;;;1.80;99.90;;;;;;5072743;28;20044;-72
2023/03/02 05:01:47;;;;;;;87.75;31.45;;;1.70;99.90;;;;;;5072919;28;20523;-72
2023/03/02 05:04:13;;;;;;;99.65;35.47;;;1.80;99.90;;;;;;5072533;28;20415;-72
2023/03/02 05:06:38;;;;;;;131.85;36.92;;;1.80;99.90;;;;;;5072576;28;20040;-73
2023/03/02 05:09:04;;;;;;;85.40;33.65;;;1.80;99.90;;;;;;5072510;28;20041;-73
2023/03/02 05:11:31;;;;;;;99.50;35.08;;;1.60;99.90;;;;;;5072551;28;20107;-73
2023/03/02 05:14:00;;;;;;;121.50;39.55;;;1.70;99.90;;;;;;5072162;28;20110;-72
2023/03/02 05:16:30;;;;;;;139.90;36.40;;;1.70;99.90;;;;;;5072491;28;20032;-72
2023/03/02 05:18:57;;;;;;;163.48;36.05;;;1.80;99.90;;;;;;5056003;28;20044;-73
2023/03/02 05:21:24;;;;;;;160.25;38.05;;;1.60;99.90;;;;;;5072310;28;20052;-72
2023/03/02 05:23:50;;;;;;;168.88;40.42;;;1.60;99.90;;;;;;5071940;28;20040;-72
2023/03/02 05:26:16;;;;;;;118.45;36.00;;;1.70;99.90;;;;;;5072167;28;20094;-73
2023/03/02 05:28:42;;;;;;;165.75;39.63;;;1.50;99.90;;;;;;5072412;28;20043;-73
2023/03/02 05:31:11;;;;;;;137.48;39.28;;;1.70;99.90;;;;;;5072202;28;20036;-72
2023/03/02 05:33:37;;;;;;;153.27;38.95;;;1.60;99.90;;;;;;5071831;28;20051;-72
2023/03/02 05:36:02;;;;;;;119.18;38.03;;;1.50;99.90;;;;;;5072151;28;20465;-72
2023/03/02 05:38:30;;;;;;;90.20;33.78;;;1.60;99.90;;;;;;5055084;28;20035;-72
2023/03/02 05:40:56;;;;;;;78.78;29.77;;;1.70;99.90;;;;;;5055666;28;20055;-72
2023/03/02 05:43:22;;;;;;;120.50;35.08;;;1.70;99.90;;;;;;5055035;28;20040;-72
2023/03/02 05:45:48;;;;;;;71.68;30.67;;;1.60;99.90;;;;;;5071918;28;20052;-72
2023/03/02 05:48:13;;;;;;;162.40;39.17;;;1.70;99.90;;;;;;5055404;28;20518;-72
2023/03/02 05:50:39;;;;;;;77.85;32.20;;;1.60;99.90;;;;;;5071781;28;20032;-72
2023/03/02 05:53:05;;;;;;;83.18;31.60;;;1.50;99.90;;;;;;5055130;28;20043;-72
2023/03/02 05:55:35;;;;;;;150.60;37.47;;;1.70;99.90;;;;;;5055170;28;20044;-73
2023/03/02 05:58:03;;;;;;;119.78;35.03;;;1.70;99.90;;;;;;5072178;28;20032;-73
2023/03/02 06:00:29;;;;;;;188.98;42.85;;;1.60;99.90;;;;;;5073021;28;20515;-72
2023/03/02 06:02:55;;;;;;;135.68;40.85;;;1.50;99.90;;;;;;5071422;28;20075;-73
2023/03/02 06:05:21;;;;;;;125.40;36.88;;;1.70;99.90;;;;;;5072518;28;20033;-72
2023/03/02 06:07:47;;;;;;;155.68;38.15;;;1.70;99.90;;;;;;5071817;28;20076;-72
2023/03/02 06:10:13;;;;;;;83.10;32.33;;;1.50;99.90;;;;;;5071332;28;20467;-72
2023/03/02 06:12:39;;;;;;;91.50;34.45;;;1.70;99.90;;;;;;5054618;28;20052;-73
2023/03/02 06:15:05;;;;;;;129.82;37.38;;;1.80;99.90;;;;;;5071145;28;20040;-72
2023/03/02 06:17:31;;;;;;;136.15;39.05;;;1.60;99.90;;;;;;5071452;28;20582;-73
2023/03/02 06:19:57;;;;;;;74.45;30.77;;;1.60;99.90;;;;;;5072392;28;20123;-73
2023/03/02 06:22:22;;;;;;;156.20;40.47;;;1.70;99.90;;;;;;5071140;28;20040;-73
2023/03/02 06:24:48;;;;;;;125.50;38.83;;;1.70;99.90;;;;;;5071047;28;20040;-72
2023/03/02 06:27:15;;;;;;;142.95;38.80;;;1.80;99.90;;;;;;5071149;28;20041;-74
2023/03/02 06:29:40;;;;;;;128.65;36.10;;;1.80;99.90;;;;;;5054420;28;20396;-74
2023/03/02 06:32:06;;;;;;;137.80;35.65;;;1.80;99.90;;;;;;5070957;28;20043;-74
2023/03/02 06:34:32;;;;;;;87.78;31.88;;;1.70;99.90;;;;;;5070592;28;20534;-74
2023/03/02 06:36:58;;;;;;;112.18;35.33;;;1.70;99.90;;;;;;5070992;28;20040;-74
2023/03/02 06:39:23;;;;;;;143.95;35.70;;;1.60;99.90;;;;;;5071227;28;20037;-74
2023/03/02 06:41:49;;;;;;;131.60;33.55;;;1.60;99.90;;;;;;5070680;28;20550;-74
2023/03/02 06:44:16;;;;;;;130.50;34.28;;;1.70;99.90;;;;;;5053570;28;20044;-74
2023/03/02 06:46:43;;;;;;;103.97;27.73;;;1.50;99.90;;;;;;5054173;28;20047;-74
2023/03/02 06:49:09;;;;;;;88.72;27.77;;;1.50;99.90;;;;;;5070916;28;20416;-74
2023/03/02 06:51:35;;;;;;;127.40;32.63;;;1.40;99.90;;;;;;5069949;28;20040;-74
2023/03/02 06:54:01;;;;;;;131.93;30.10;;;1.30;99.90;;;;;;5070356;28;20040;-74
2023/03/02 06:56:26;;;;;;;134.82;33.20;;;1.30;99.90;;;;;;5054253;28;20035;-74
2023/03/02 06:58:52;;;;;;;73.57;27.38;;;1.40;99.90;;;;;;5070827;28;20097;-74
2023/03/02 07:01:18;;;;;;;74.05;26.33;;;1.20;99.90;;;;;;5070626;28;20665;-74
2023/03/02 07:03:43;;;;;;;57.15;24.67;;;1.40;99.90;;;;;;5070519;28;20396;-74
2023/03/02 07:06:11;;;;;;;130.75;34.65;;;1.30;99.90;;;;;;5070488;28;20495;-74
2023/03/02 07:08:37;;;;;;;65.97;26.75;;;1.30;99.90;;;;;;5070559;28;20058;-74
2023/03/02 07:11:11;;;;;;;80.07;27.23;;;1.50;99.90;;;;;;5053712;28;20422;-74
2023/03/02 07:13:38;;;;;;;122.22;31.85;;;1.50;99.90;;;;;;5070344;28;20419;-75
2023/03/02 07:16:12;;;;;;;127.10;31.67;;;1.50;99.90;;;;;;5070329;28;20048;-75
2023/03/02 07:18:37;;;;;;;90.13;28.63;;;1.30;99.90;;;;;;5070485;28;20060;-75
2023/03/02 07:21:03;;;;;;;138.93;32.47;;;1.40;99.90;;;;;;5070345;28;20522;-74
2023/03/02 07:23:29;;;;;;;107.57;31.25;;;1.10;99.90;;;;;;5069941;28;20037;-74
2023/03/02 07:25:55;;;;;;;81.80;31.50;;;1.30;99.90;;;;;;5070319;28;20045;-74
2023/03/02 07:28:23;;;;;;;48.22;23.70;;;1.30;99.90;;;;;;5070366;28;20044;-74
2023/03/02 07:30:49;;;;;;;61.97;26.42;;;1.40;99.90;;;;;;5070294;28;20419;-75
2023/03/02 07:33:14;;;;;;;81.32;29.48;;;1.40;99.90;;;;;;5070200;28;20045;-75
2023/03/02 07:35:40;;;;;;;90.00;29.75;;;1.40;99.90;;;;;;5069667;28;20035;-76
2023/03/02 07:38:05;;;;;;;98.82;32.50;;;1.60;99.90;;;;;;5070220;28;20067;-75
2023/03/02 07:40:32;;;;;;;133.68;37.72;;;1.60;99.90;;;;;;5070170;28;20407;-74
2023/03/02 07:42:58;;;;;;;106.88;31.73;;;1.50;99.90;;;;;;5070043;28;20067;-74
2023/03/02 07:45:25;;;;;;;83.75;29.17;;;1.50;99.90;;;;;;5069677;28;20496;-74
2023/03/02 07:47:51;;;;;;;65.78;27.25;;;1.40;99.90;;;;;;5070137;28;20139;-75
2023/03/02 07:50:16;;;;;;;81.72;31.50;;;1.40;99.90;;;;;;5070005;28;20474;-75
2023/03/02 07:52:42;;;;;;;105.30;33.92;;;1.50;99.90;;;;;;5070184;28;20136;-74
2023/03/02 07:55:08;;;;;;;81.82;29.35;;;1.50;99.90;;;;;;5069812;28;20047;-74
2023/03/02 07:57:34;;;;;;;63.88;27.13;;;1.50;99.90;;;;;;5069598;28;20040;-74
2023/03/02 07:59:59;;;;;;;57.22;25.73;;;1.50;99.90;;;;;;5053409;28;20052;-75
2023/03/02 08:02:25;;;;;;;59.90;27.17;;;1.60;99.90;;;;;;5055871;28;20563;-74
2023/03/02 08:04:51;;;;;;;66.72;28.10;;;1.50;99.90;;;;;;5057276;28;20040;-75
2023/03/02 08:07:17;;;;;;;73.90;27.42;;;1.60;99.90;;;;;;5074185;28;20051;-75
2023/03/02 08:09:42;;;;;;;57.28;25.40;;;1.50;99.90;;;;;;5057074;28;20040;-75
2023/03/02 08:12:08;;;;;;;68.57;28.13;;;1.60;99.90;;;;;;5056983;28;20044;-74
2023/03/02 08:14:34;;;;;;;81.85;28.48;;;1.60;99.90;;;;;;5073570;28;20028;-75
2023/03/02 08:17:03;;;;;;;84.32;30.52;;;1.60;99.90;;;;;;5073710;28;20511;-75
2023/03/02 08:19:28;;;;;;;53.20;26.17;;;1.80;99.90;;;;;;5057061;28;20037;-75
2023/03/02 08:21:54;;;;;;;65.60;27.30;;;1.70;99.90;;;;;;5056364;28;20040;-75
2023/03/02 08:24:19;;;;;;;80.15;29.38;;;1.80;99.90;;;;;;5073245;28;20135;-75
2023/03/02 08:26:45;;;;;;;62.88;27.20;;;1.70;99.90;;;;;;5073770;28;20106;-75
2023/03/02 08:29:11;;;;;;;61.97;28.27;;;1.90;99.90;;;;;;5073400;28;20554;-75
2023/03/02 08:31:36;;;;;;;60.17;27.08;;;1.90;99.90;;;;;;5056580;28;20090;-74
2023/03/02 08:34:02;;;;;;;54.95;25.52;;;2.00;99.90;;;;;;5073086;28;20037;-75
2023/03/02 08:36:27;;;;;;;66.60;27.67;;;2.00;99.90;;;;;;5073074;28;20032;-75
2023/03/02 08:38:53;;;;;;;60.00;26.38;;;1.90;99.90;;;;;;5073483;28;20504;-75
2023/03/02 08:41:21;;;;;;;53.00;26.25;;;2.00;99.90;;;;;;5073263;28;20055;-75
2023/03/02 08:43:47;;;;;;;59.03;27.60;;;2.00;99.90;;;;;;5055963;28;20492;-74
2023/03/02 08:46:16;;;;;;;66.38;28.55;;;2.10;99.90;;;;;;5073121;28;20070;-74
2023/03/02 08:48:41;;;;;;;61.47;28.08;;;2.10;99.90;;;;;;5056388;28;20048;-74
2023/03/02 08:51:10;;;;;;;55.65;26.15;;;2.10;99.90;;;;;;5072878;28;20044;-74
2023/03/02 08:53:39;;;;;;;52.40;26.02;;;2.20;99.90;;;;;;5072626;28;20056;-72
2023/03/02 08:56:13;;;;;;;61.13;27.80;;;2.00;99.90;;;;;;5056544;28;20514;-74
2023/03/02 08:58:38;;;;;;;50.85;25.10;;;2.10;99.90;;;;;;5072992;28;20041;-73
2023/03/02 09:01:04;;;;;;;52.83;24.85;;;2.20;99.90;;;;;;5072917;28;20049;-74
2023/03/02 09:03:29;;;;;;;46.10;23.13;;;2.20;99.90;;;;;;5072328;28;20040;-73
2023/03/02 09:05:55;;;;;;;56.15;24.25;;;2.20;99.90;;;;;;5072362;28;20492;-73
2023/03/02 09:08:20;;;;;;;56.95;27.05;;;2.10;99.90;;;;;;5072238;28;20044;-73
2023/03/02 09:10:46;;;;;;;54.03;23.35;;;2.30;99.90;;;;;;5072535;28;20093;-74
2023/03/02 09:13:11;;;;;;;52.03;25.30;;;2.20;99.90;;;;;;5071756;28;20048;-74
2023/03/02 09:15:37;;;;;;;45.20;21.98;;;2.20;99.90;;;;;;5072564;28;20504;-74
2023/03/02 09:18:03;;;;;;;48.03;24.42;;;2.40;99.90;;;;;;5055879;28;20048;-73
2023/03/02 09:20:28;;;;;;;47.35;24.08;;;2.40;99.90;;;;;;5072673;28;20048;-74
2023/03/02 09:22:54;;;;;;;48.40;22.48;;;2.40;99.90;;;;;;5055749;28;20041;-74
2023/03/02 09:25:19;;;;;;;45.60;21.73;;;2.50;99.90;;;;;;5055469;28;20093;-74
2023/03/02 09:27:46;;;;;;;50.58;24.75;;;2.40;99.90;;;;;;5072336;28;20092;-73
2023/03/02 09:30:13;;;;;;;40.95;21.60;;;2.50;99.90;;;;;;5055791;28;20181;-74
2023/03/02 09:32:38;;;;;;;36.15;17.63;;;2.60;99.90;;;;;;5055410;28;20044;-74
2023/03/02 09:56:01;;;;;;;34.63;20.23;;;2.60;99.90;;;;;;5201307;27;20737;-76
2023/03/02 09:58:38;;;;;;;35.92;18.35;;;3.80;99.90;;;;;;5063010;28;20060;-75
2023/03/02 10:01:15;;;;;;;34.03;18.80;;;3.60;99.90;;;;;;5079105;28;20070;-75
2023/03/02 10:03:51;;;;;;;38.20;19.05;;;3.30;99.90;;;;;;5072491;28;20040;-75
2023/03/02 10:06:16;;;;;;;32.47;16.92;;;3.10;99.90;;;;;;5037645;28;20054;-75
2023/03/02 10:08:42;;;;;;;30.13;16.15;;;3.00;99.90;;;;;;5047345;28;20052;-73
2023/03/02 10:11:20;;;;;;;28.65;17.02;;;3.00;99.90;;;;;;4942059;28;20054;-75
2023/03/02 10:13:49;;;;;;;34.08;17.45;;;3.10;99.90;;;;;;4920690;28;20060;-75
2023/03/02 10:19:10;;;;;;;30.73;16.35;;;3.10;99.90;;;;;;5125931;27;1214673;-75
2023/03/02 10:21:44;;;;;;;;;;;3.10;99.90;;;;;;5128884;28;20265;-75
2023/03/02 10:24:34;;;;;;;;;;;3.00;99.90;;;;;;5126029;28;20297;-74
2023/03/02 10:27:24;;;;;;;32.50;15.75;;;3.10;99.90;;;;;;5104823;28;19916;-74
2023/03/02 10:29:56;;;;;;;34.33;16.67;;;3.10;99.90;;;;;;5117421;28;20436;-74
2023/03/02 10:32:40;;;;;;;28.88;15.40;;;3.10;99.90;;;;;;5116935;28;20043;-74
2023/03/02 10:35:12;;;;;;;;;;;3.20;99.90;;;;;;5120477;28;20050;-74
2023/03/02 10:37:38;;;;;;;23.70;12.68;;;2.80;99.90;;;;;;5111285;28;19920;-75
2023/03/02 10:40:04;;;;;;;23.02;12.35;;;2.80;99.90;;;;;;5107899;28;20036;-74
2023/03/02 10:42:41;;;;;;;24.40;13.30;;;2.70;99.90;;;;;;5107809;28;20044;-75
2023/03/02 10:45:29;;;;;;;22.58;11.30;;;2.80;99.90;;;;;;5108952;28;20092;-75
2023/03/02 10:48:03;;;;;;;23.95;12.55;;;3.00;99.90;;;;;;5109025;28;20071;-74
2023/03/02 10:50:31;;;;;;;;;;;3.30;99.90;;;;;;5091069;28;20082;-74
2023/03/02 10:52:58;;;;;;;20.90;12.02;;;3.30;99.90;;;;;;5107455;28;20002;-74
2023/03/02 10:55:24;;;;;;;26.65;12.73;;;3.40;99.90;;;;;;5108988;28;20089;-75
2023/03/02 10:58:05;;;;;;;24.13;13.07;;;3.60;99.90;;;;;;5108734;28;20352;-75
2023/03/02 11:00:33;;;;;;;29.70;13.90;;;3.60;99.90;;;;;;5108827;28;20043;-75
2023/03/02 11:03:20;;;;;;;25.02;13.20;;;3.60;99.90;;;;;;5107242;28;20085;-73
2023/03/02 11:05:46;;;;;;;28.45;14.55;;;3.70;99.90;;;;;;5107733;28;20090;-74
2023/03/02 11:08:24;;;;;;;21.58;11.88;;;3.70;99.90;;;;;;5107631;28;20061;-75
2023/03/02 11:10:54;;;;;;;22.63;12.20;;;3.70;99.90;;;;;;5107461;28;20043;-73
2023/03/02 11:13:27;;;;;;;23.15;11.80;;;3.50;99.90;;;;;;5112266;28;20053;-74
2023/03/02 11:16:20;;;;;;;24.10;12.73;;;3.60;99.90;;;;;;5115614;28;20141;-73
2023/03/02 11:18:56;;;;;;;22.27;12.65;;;3.60;99.90;;;;;;5109964;28;20032;-73
2023/03/02 11:21:31;;;;;;;28.15;14.30;;;3.70;99.90;;;;;;5107127;28;20544;-73
2023/03/02 11:24:06;;;;;;;25.08;13.30;;;3.80;99.90;;;;;;5108083;28;20517;-74
2023/03/02 11:26:46;;;;;;;27.15;13.93;;;3.80;99.90;;;;;;5108403;28;20103;-74
2023/03/02 11:29:23;;;;;;;28.58;14.65;;;3.80;99.90;;;;;;5100744;28;20050;-74
2023/03/02 11:31:52;;;;;;;26.38;14.52;;;4.00;99.90;;;;;;5094704;28;20048;-74
2023/03/02 11:34:50;;;;;;;25.40;13.13;;;4.00;99.90;;;;;;5094436;28;20040;-74
2023/03/02 11:37:24;;;;;;;28.95;15.10;;;4.10;99.90;;;;;;5094186;28;20040;-74
2023/03/02 11:39:58;;;;;;;27.58;14.80;;;4.10;99.90;;;;;;5093644;28;20490;-74
2023/03/02 11:42:34;;;;;;;25.50;13.07;;;4.10;99.90;;;;;;5094434;28;20032;-75
2023/03/02 11:45:14;;;;;;;30.83;15.95;;;4.40;99.90;;;;;;5094392;28;20036;-74
2023/03/02 11:47:44;;;;;;;27.95;16.85;;;4.50;99.90;;;;;;5094494;28;20035;-74
2023/03/02 11:50:13;;;;;;;30.13;16.35;;;4.30;99.90;;;;;;5096189;28;20063;-74
2023/03/02 11:52:48;;;;;;;32.50;15.50;;;4.30;99.90;;;;;;5102024;28;20439;-75
2023/03/02 11:55:21;;;;;;;31.00;14.90;;;4.20;99.90;;;;;;5113506;28;20066;-74
2023/03/02 11:57:54;;;;;;;31.45;14.82;;;4.10;99.90;;;;;;5114472;28;20128;-74
2023/03/02 12:00:40;;;;;;;31.17;15.90;;;4.10;99.90;;;;;;5096577;28;20131;-74
2023/03/02 12:03:20;;;;;;;39.08;16.10;;;4.20;99.90;;;;;;5114194;28;20046;-74
2023/03/02 12:06:00;;;;;;;33.92;18.15;;;4.30;99.90;;;;;;5114721;28;20032;-73
2023/03/02 12:08:41;;;;;;;40.55;19.33;;;4.40;99.90;;;;;;5107048;28;20386;-74
2023/03/02 12:11:07;;;;;;;42.63;19.92;;;4.30;99.90;;;;;;5114380;28;20089;-73
2023/03/02 12:13:38;;;;;;;46.60;20.10;;;4.50;99.90;;;;;;5113949;28;20067;-74
2023/03/02 12:16:18;;;;;;;46.75;21.58;;;4.60;99.90;;;;;;5114349;28;20039;-74
2023/03/02 12:18:47;;;;;;;48.60;23.52;;;4.50;99.90;;;;;;5114279;28;20043;-76
2023/03/02 12:21:17;;;;;;;48.90;22.30;;;4.60;99.90;;;;;;5114087;28;20482;-75
2023/03/02 12:23:42;;;;;;;61.40;25.15;;;4.80;99.90;;;;;;5092193;28;20032;-74
2023/03/02 12:26:26;;;;;;;53.17;24.15;;;4.70;99.90;;;;;;5103016;28;20035;-74
2023/03/02 12:28:56;;;;;;;50.55;23.70;;;4.70;99.90;;;;;;5103944;28;20483;-74
2023/03/02 12:31:23;;;;;;;52.00;25.90;;;4.70;99.90;;;;;;5075312;28;20047;-74
2023/03/02 12:33:50;;;;;;;48.97;24.83;;;4.70;99.90;;;;;;5085611;28;20437;-74
2023/03/02 12:36:25;;;;;;;48.42;22.67;;;4.80;99.90;;;;;;5113599;28;20043;-75
2023/03/02 12:39:03;;;;;;;45.95;23.60;;;4.90;99.90;;;;;;5113832;28;20036;-75
2023/03/02 12:41:40;;;;;;;30.35;17.50;;;5.10;99.90;;;;;;5112616;28;20044;-74
2023/03/02 12:44:26;;;;;;;30.50;16.88;;;5.20;99.90;;;;;;5095064;28;20078;-75
2023/03/02 12:46:52;;;;;;;36.70;19.92;;;5.10;99.90;;;;;;5095088;28;20421;-75
2023/03/02 12:49:44;;;;;;;35.13;18.48;;;5.10;99.90;;;;;;5078312;28;20035;-75
2023/03/02 12:52:31;;;;;;;28.25;15.23;;;5.10;99.90;;;;;;5064572;28;20081;-74
2023/03/02 12:54:59;;;;;;;29.95;16.15;;;5.10;99.90;;;;;;5088322;28;20048;-75
2023/03/02 12:57:25;;;;;;;28.52;14.52;;;5.10;99.90;;;;;;5079190;28;20040;-74
2023/03/02 12:59:52;;;;;;;28.80;15.25;;;5.10;99.90;;;;;;5074642;28;20039;-74
2023/03/02 13:02:29;;;;;;;24.13;14.32;;;5.00;99.90;;;;;;5077476;28;20436;-74
2023/03/02 13:05:06;;;;;;;26.92;15.90;;;5.00;99.90;;;;;;5077776;28;21794;-74
2023/03/02 13:07:40;;;;;;;29.67;16.13;;;5.00;99.90;;;;;;5085042;28;20040;-74
2023/03/02 13:10:26;;;;;;;30.08;15.20;;;5.00;99.90;;;;;;5073450;28;20044;-74